Time;durP1;ratioP1;P1;durP2;ratioP2;P2;SDS_P1;SDS_P2;PMS_P1;PMS_P2;Temp;Humidity;BMP_temperature;BMP_pressure;BME280_temperature;BME280_humidity;BME280_pressure;Samples;Min_cycle;Max_cycle;Signal;HPM_P1;HPM_P2
2023/01/03 00:01:27;;;;;;;12.10;6.60;;;6.10;99.90;;;;;;5073838;28;20369;-69
2023/01/03 00:03:55;;;;;;;11.18;5.95;;;6.10;99.90;;;;;;5073009;28;20041;-70
2023/01/03 00:06:23;;;;;;;13.63;6.60;;;6.10;99.90;;;;;;5072733;28;20056;-69
2023/01/03 00:08:49;;;;;;;11.93;7.20;;;5.90;99.90;;;;;;5073933;28;20427;-70
2023/01/03 00:12:22;;;;;;;17.63;6.28;;;5.90;99.90;;;;;;5049038;28;20049;-70
2023/01/03 00:14:07;;;;;;;12.93;6.00;;;5.90;99.90;;;;;;5057381;28;20102;-69
2023/01/03 00:16:32;;;;;;;12.73;6.35;;;5.90;99.90;;;;;;5062042;28;20037;-69
2023/01/03 00:18:58;;;;;;;17.25;6.38;;;5.70;99.90;;;;;;5062029;28;20036;-70
2023/01/03 00:21:24;;;;;;;13.82;7.13;;;5.70;99.90;;;;;;5070131;28;20044;-70
2023/01/03 00:23:49;;;;;;;13.35;7.00;;;5.80;99.90;;;;;;5071435;28;20036;-70
2023/01/03 00:26:15;;;;;;;13.00;6.53;;;5.70;99.90;;;;;;5073767;28;20136;-70
2023/01/03 00:28:41;;;;;;;13.35;6.57;;;5.70;99.90;;;;;;5064710;28;20041;-69
2023/01/03 00:31:09;;;;;;;12.88;7.30;;;5.70;99.90;;;;;;5073250;28;20117;-69
2023/01/03 00:33:36;;;;;;;13.52;7.32;;;5.50;99.90;;;;;;5073221;28;20040;-70
2023/01/03 00:36:03;;;;;;;14.95;7.43;;;5.60;99.90;;;;;;5072605;28;20044;-69
2023/01/03 00:38:29;;;;;;;14.07;7.45;;;5.70;99.90;;;;;;5072061;28;20511;-69
2023/01/03 00:41:01;;;;;;;18.27;7.50;;;5.70;99.90;;;;;;5073269;28;20037;-70
2023/01/03 00:43:30;;;;;;;;;;;5.60;99.90;;;;;;5062625;28;20397;-70
2023/01/03 00:45:56;;;;;;;12.35;6.72;;;5.60;99.90;;;;;;5052678;28;20308;-70
2023/01/03 00:48:21;;;;;;;14.13;7.78;;;5.50;99.90;;;;;;5053239;28;20045;-70
2023/01/03 00:50:47;;;;;;;9.80;6.57;;;5.60;99.90;;;;;;5053095;28;20597;-69
2023/01/03 00:53:12;;;;;;;13.88;7.38;;;5.50;99.90;;;;;;5052983;28;20144;-69
2023/01/03 00:55:38;;;;;;;10.75;7.00;;;5.50;99.90;;;;;;5052011;28;20057;-69
2023/01/03 00:58:04;;;;;;;14.63;7.25;;;5.60;99.90;;;;;;5053077;28;20041;-70
2023/01/03 01:00:29;;;;;;;11.55;7.32;;;5.50;99.90;;;;;;5052674;28;20041;-69
2023/01/03 01:02:55;;;;;;;12.38;7.60;;;5.50;99.90;;;;;;5052772;28;20040;-69
2023/01/03 01:05:20;;;;;;;14.73;7.00;;;5.50;99.90;;;;;;5052043;28;20040;-69
2023/01/03 01:07:46;;;;;;;17.48;9.25;;;5.50;99.90;;;;;;5052755;28;20091;-70
2023/01/03 01:10:12;;;;;;;14.73;7.75;;;5.50;99.90;;;;;;5052904;28;20041;-70
2023/01/03 01:12:37;;;;;;;16.10;7.80;;;5.50;99.90;;;;;;5051232;28;20045;-69
2023/01/03 01:15:04;;;;;;;15.45;7.05;;;5.50;99.90;;;;;;5052065;28;20047;-70
2023/01/03 01:17:29;;;;;;;12.85;7.40;;;5.50;99.90;;;;;;5051052;28;20041;-70
2023/01/03 01:19:55;;;;;;;15.80;7.28;;;5.50;99.90;;;;;;5052588;28;20037;-69
2023/01/03 01:22:21;;;;;;;15.00;7.70;;;5.50;99.90;;;;;;5051010;28;20087;-69
2023/01/03 01:24:46;;;;;;;14.10;8.38;;;5.50;99.90;;;;;;5050651;28;20115;-69
2023/01/03 01:27:12;;;;;;;15.15;7.53;;;5.50;99.90;;;;;;5052584;28;20052;-69
2023/01/03 01:29:38;;;;;;;13.50;7.63;;;5.40;99.90;;;;;;5051286;28;20041;-69
2023/01/03 01:32:04;;;;;;;13.13;7.45;;;5.40;99.90;;;;;;5052485;28;20405;-69
2023/01/03 01:34:30;;;;;;;13.63;8.48;;;5.40;99.90;;;;;;5050213;28;20086;-69
2023/01/03 01:36:56;;;;;;;15.35;7.13;;;5.30;99.90;;;;;;5052065;28;20514;-69
2023/01/03 01:39:25;;;;;;;11.98;7.13;;;5.40;99.90;;;;;;5052006;28;20047;-69
2023/01/03 01:44:42;;;;;;;26.02;8.05;;;5.20;99.90;;;;;;5050065;28;20056;-69
2023/01/03 01:47:18;;;;;;;12.82;7.45;;;5.20;99.90;;;;;;5051946;28;20829;-69
2023/01/03 01:49:47;;;;;;;15.77;8.40;;;5.20;99.90;;;;;;5052056;28;20128;-69
2023/01/03 01:52:15;;;;;;;10.13;7.07;;;5.10;99.90;;;;;;5051915;28;20048;-69
2023/01/03 01:54:41;;;;;;;15.60;7.63;;;5.10;99.90;;;;;;5050058;28;20056;-69
2023/01/03 01:57:11;;;;;;;14.73;7.53;;;5.10;99.90;;;;;;5051996;28;20064;-69
2023/01/03 01:59:36;;;;;;;16.95;8.13;;;5.20;99.90;;;;;;5051592;28;20170;-69
2023/01/03 02:02:02;;;;;;;13.55;7.10;;;5.20;99.90;;;;;;5051538;28;20120;-69
2023/01/03 02:04:32;;;;;;;13.55;7.35;;;5.10;99.90;;;;;;5051085;28;20146;-69
2023/01/03 02:06:59;;;;;;;17.45;8.55;;;5.10;99.90;;;;;;5051595;28;20757;-69
2023/01/03 02:09:25;;;;;;;11.98;6.50;;;5.00;99.90;;;;;;5048925;28;20167;-69
2023/01/03 02:15:06;;;;;;;15.90;7.38;;;4.90;99.90;;;;;;5058928;28;20049;-69
2023/01/03 02:17:43;;;;;;;16.77;7.78;;;4.80;99.90;;;;;;5062936;28;20090;-69
2023/01/03 02:20:27;;;;;;;13.98;7.70;;;4.90;99.90;;;;;;5071251;28;20124;-69
2023/01/03 02:23:15;;;;;;;14.70;6.28;;;4.80;99.90;;;;;;5060874;28;20095;-69
2023/01/03 02:26:08;;;;;;;17.20;8.35;;;4.80;99.90;;;;;;5068365;28;20084;-69
2023/01/03 02:28:51;;;;;;;18.45;8.30;;;4.80;99.90;;;;;;5071127;28;20048;-69
2023/01/03 02:31:35;;;;;;;13.43;7.47;;;4.90;99.90;;;;;;5071203;28;20100;-69
2023/01/03 02:34:28;;;;;;;15.00;7.85;;;4.90;99.90;;;;;;5070386;28;20051;-69
2023/01/03 02:36:59;;;;;;;13.90;7.55;;;4.80;99.90;;;;;;5070879;28;20040;-69
2023/01/03 02:39:45;;;;;;;14.32;7.38;;;4.80;99.90;;;;;;5071008;28;20178;-69
2023/01/03 02:45:17;;;;;;;17.30;8.27;;;4.80;99.90;;;;;;5070269;28;20080;-69
2023/01/03 02:47:51;;;;;;;20.02;9.23;;;4.80;99.90;;;;;;5071037;28;20043;-69
2023/01/03 02:50:19;;;;;;;16.33;9.15;;;4.80;99.90;;;;;;5071058;28;20052;-69
2023/01/03 02:52:48;;;;;;;18.00;9.02;;;4.90;99.90;;;;;;5070818;28;20111;-69
2023/01/03 02:55:19;;;;;;;16.95;9.60;;;4.80;99.90;;;;;;5068961;28;20428;-69
2023/01/03 02:57:57;;;;;;;19.23;9.10;;;4.90;99.90;;;;;;5069433;28;20052;-69
2023/01/03 03:00:27;;;;;;;17.80;9.50;;;4.90;99.90;;;;;;5069790;28;20119;-69
2023/01/03 03:02:59;;;;;;;22.05;10.75;;;4.90;99.90;;;;;;5069671;28;20041;-69
2023/01/03 03:05:31;;;;;;;21.40;11.15;;;4.90;99.90;;;;;;5069571;28;20036;-69
2023/01/03 03:07:56;;;;;;;20.70;11.33;;;5.00;99.90;;;;;;5069168;28;20047;-69
2023/01/03 03:13:32;;;;;;;22.85;11.48;;;4.90;99.90;;;;;;5069163;28;20080;-69
2023/01/03 03:16:16;;;;;;;23.33;10.95;;;4.90;99.90;;;;;;5070181;28;20451;-69
2023/01/03 03:18:50;;;;;;;21.23;12.43;;;4.90;99.90;;;;;;5070538;28;20120;-69
2023/01/03 03:26:58;;;;;;;24.98;11.57;;;4.90;99.90;;;;;;5070783;28;20040;-69
2023/01/03 03:29:26;;;;;;;28.33;10.95;;;4.80;99.90;;;;;;5070671;28;20174;-69
2023/01/03 03:31:53;;;;;;;23.00;11.05;;;4.70;99.90;;;;;;5069151;28;20096;-69
2023/01/03 03:34:28;;;;;;;22.52;11.45;;;4.80;99.90;;;;;;5069822;28;20048;-69
2023/01/03 03:37:06;;;;;;;21.65;11.20;;;4.80;99.90;;;;;;5069205;28;20385;-69
2023/01/03 03:45:33;;;;;;;24.10;12.23;;;4.70;99.90;;;;;;5069841;28;20115;-69
2023/01/03 03:48:06;;;;;;;26.92;12.55;;;4.70;99.90;;;;;;5069368;28;20374;-69
2023/01/03 03:50:39;;;;;;;26.88;12.90;;;4.70;99.90;;;;;;5070344;28;20419;-69
2023/01/03 03:53:08;;;;;;;;;;;4.60;99.90;;;;;;5069432;28;20048;-69
2023/01/03 03:55:52;;;;;;;26.20;11.43;;;4.60;99.90;;;;;;5068294;28;20437;-69
2023/01/03 03:58:36;;;;;;;26.67;13.13;;;4.60;99.90;;;;;;5052096;28;20044;-69
2023/01/03 04:01:02;;;;;;;22.70;11.40;;;4.60;99.90;;;;;;5070354;28;20041;-69
2023/01/03 04:03:29;;;;;;;27.25;13.10;;;4.50;99.90;;;;;;5068757;28;20040;-69
2023/01/03 04:06:03;;;;;;;26.20;12.38;;;4.50;99.90;;;;;;5069648;28;20082;-69
2023/01/03 04:08:29;;;;;;;21.52;11.95;;;4.40;99.90;;;;;;5070136;28;20055;-69
2023/01/03 04:11:04;;;;;;;23.60;11.23;;;4.40;99.90;;;;;;5069037;28;20040;-69
2023/01/03 04:13:34;;;;;;;24.75;11.18;;;4.30;99.90;;;;;;5070127;28;20398;-69
2023/01/03 04:15:59;;;;;;;22.40;11.20;;;4.20;99.90;;;;;;5069199;28;20045;-69
2023/01/03 04:18:25;;;;;;;23.33;11.48;;;4.10;99.90;;;;;;5071997;28;20032;-69
2023/01/03 04:20:50;;;;;;;21.48;11.40;;;4.10;99.90;;;;;;5072310;28;20158;-69
2023/01/03 04:23:16;;;;;;;22.58;12.18;;;4.10;99.90;;;;;;5072103;28;20040;-69
2023/01/03 04:25:42;;;;;;;22.67;12.80;;;4.10;99.90;;;;;;5072011;28;20071;-69
2023/01/03 04:28:07;;;;;;;27.17;11.88;;;4.00;99.90;;;;;;5073716;28;20036;-69
2023/01/03 04:30:34;;;;;;;27.20;12.65;;;4.00;99.90;;;;;;5073479;28;20055;-69
2023/01/03 04:33:03;;;;;;;26.17;12.70;;;4.00;99.90;;;;;;5073235;28;20119;-69
2023/01/03 04:35:30;;;;;;;29.80;12.98;;;3.90;99.90;;;;;;5071246;28;20049;-69
2023/01/03 04:37:56;;;;;;;26.42;13.73;;;4.00;99.90;;;;;;5073490;28;20041;-69
2023/01/03 04:40:21;;;;;;;26.15;13.93;;;4.00;99.90;;;;;;5073295;28;20040;-69
2023/01/03 04:45:31;;;;;;;26.77;13.48;;;4.00;99.90;;;;;;5072331;28;20041;-69
2023/01/03 04:47:57;;;;;;;28.50;14.25;;;4.00;99.90;;;;;;5073306;28;20552;-69
2023/01/03 04:50:22;;;;;;;28.55;13.98;;;4.10;99.90;;;;;;5071759;28;20047;-69
2023/01/03 04:52:48;;;;;;;24.88;13.82;;;4.00;99.90;;;;;;5073116;28;20049;-69
2023/01/03 04:55:13;;;;;;;25.98;14.18;;;4.00;99.90;;;;;;5070865;28;20044;-69
2023/01/03 04:57:39;;;;;;;33.65;15.07;;;4.10;99.90;;;;;;5072908;28;20048;-69
2023/01/03 05:00:05;;;;;;;25.33;14.05;;;4.10;99.90;;;;;;5072788;28;20040;-69
2023/01/03 05:02:31;;;;;;;27.52;14.15;;;4.10;99.90;;;;;;5072929;28;20111;-69
2023/01/03 05:04:56;;;;;;;25.33;12.38;;;4.10;99.90;;;;;;5072242;28;20127;-69
2023/01/03 05:07:22;;;;;;;31.80;13.32;;;4.00;99.90;;;;;;5072910;28;20044;-69
2023/01/03 05:09:47;;;;;;;27.30;14.35;;;4.00;99.90;;;;;;5072769;28;20051;-69
2023/01/03 05:12:13;;;;;;;23.13;13.23;;;4.00;99.90;;;;;;5071403;28;20052;-69
2023/01/03 05:14:41;;;;;;;29.92;14.43;;;4.00;99.90;;;;;;5071757;28;20040;-69
2023/01/03 05:17:08;;;;;;;30.80;14.25;;;4.00;99.90;;;;;;5072378;28;20041;-69
2023/01/03 05:19:33;;;;;;;26.88;13.93;;;4.00;99.90;;;;;;5072752;28;20032;-69
2023/01/03 05:27:45;;;;;;;25.45;12.60;;;4.00;99.90;;;;;;5029921;28;20049;-69
2023/01/03 05:30:10;;;;;;;25.58;13.18;;;3.90;99.90;;;;;;5063298;28;20126;-69
2023/01/03 05:32:36;;;;;;;24.38;13.45;;;3.90;99.90;;;;;;5072055;28;20037;-69
2023/01/03 05:35:01;;;;;;;24.23;13.95;;;3.80;99.90;;;;;;5070345;28;20101;-69
2023/01/03 05:37:27;;;;;;;27.92;15.02;;;3.80;99.90;;;;;;5072293;28;20036;-69
2023/01/03 05:39:52;;;;;;;27.17;13.30;;;3.80;99.90;;;;;;5072242;28;20079;-69
2023/01/03 05:42:18;;;;;;;23.98;13.52;;;3.80;99.90;;;;;;5072174;28;20045;-69
2023/01/03 05:44:43;;;;;;;26.23;14.68;;;3.90;99.90;;;;;;5071168;28;20028;-69
2023/01/03 05:47:09;;;;;;;33.22;14.38;;;3.90;99.90;;;;;;5070600;28;20047;-69
2023/01/03 05:49:35;;;;;;;26.77;13.50;;;3.80;99.90;;;;;;5071970;28;20040;-69
2023/01/03 05:52:00;;;;;;;24.20;13.63;;;3.80;99.90;;;;;;5071998;28;20036;-69
2023/01/03 05:54:26;;;;;;;31.05;15.38;;;3.80;99.90;;;;;;5071106;28;20040;-69
2023/01/03 05:56:52;;;;;;;28.13;14.27;;;3.80;99.90;;;;;;5071971;28;20048;-69
2023/01/03 05:59:18;;;;;;;29.95;14.75;;;3.80;99.90;;;;;;5070281;28;20043;-69
2023/01/03 06:01:44;;;;;;;27.58;14.32;;;3.80;99.90;;;;;;5071662;28;20074;-69
2023/01/03 06:04:09;;;;;;;24.23;13.15;;;3.80;99.90;;;;;;5069548;28;20071;-69
2023/01/03 06:06:35;;;;;;;28.58;13.07;;;3.80;99.90;;;;;;5071641;28;20036;-69
2023/01/03 06:09:01;;;;;;;22.27;12.02;;;3.70;99.90;;;;;;5063266;28;20033;-69
2023/01/03 06:11:26;;;;;;;25.23;13.90;;;3.60;99.90;;;;;;5062255;28;20044;-69
2023/01/03 06:13:52;;;;;;;23.52;13.50;;;3.60;99.90;;;;;;5060060;28;20124;-69
2023/01/03 06:19:04;;;;;;;27.08;13.63;;;3.50;99.90;;;;;;5071672;28;20041;-69
2023/01/03 06:21:30;;;;;;;27.67;13.60;;;3.50;99.90;;;;;;5071457;28;20082;-69
2023/01/03 06:23:56;;;;;;;22.40;13.05;;;3.50;99.90;;;;;;5070467;28;20071;-69
2023/01/03 06:26:23;;;;;;;22.48;12.90;;;3.50;99.90;;;;;;5069559;28;20123;-69
2023/01/03 06:28:49;;;;;;;27.38;15.30;;;3.50;99.90;;;;;;5071186;28;20049;-69
2023/01/03 06:31:14;;;;;;;26.05;14.25;;;3.50;99.90;;;;;;5071184;28;20041;-69
2023/01/03 06:33:40;;;;;;;25.88;14.52;;;3.50;99.90;;;;;;5071324;28;20405;-69
2023/01/03 06:36:08;;;;;;;26.92;13.23;;;3.60;99.90;;;;;;5052576;28;20045;-69
2023/01/03 06:38:35;;;;;;;29.15;14.82;;;3.50;99.90;;;;;;5070017;28;20102;-69
2023/01/03 06:41:01;;;;;;;27.50;12.90;;;3.40;99.90;;;;;;5069032;28;20047;-69
2023/01/03 06:43:27;;;;;;;33.72;14.32;;;3.40;99.90;;;;;;5071087;28;20445;-69
2023/01/03 06:54:08;;;;;;;20.33;11.05;;;3.10;99.90;;;;;;5070338;28;20131;-69
2023/01/03 06:56:33;;;;;;;21.38;11.88;;;3.10;99.90;;;;;;5070894;28;20044;-69
2023/01/03 06:58:59;;;;;;;36.40;11.43;;;3.10;99.90;;;;;;5070801;28;20044;-69
2023/01/03 07:01:24;;;;;;;15.18;9.70;;;3.00;99.90;;;;;;5071108;28;20040;-69
2023/01/03 07:03:50;;;;;;;33.90;10.27;;;2.90;99.90;;;;;;5069979;28;20166;-70
2023/01/03 07:06:15;;;;;;;21.73;10.32;;;3.00;99.90;;;;;;5069635;28;20055;-69
2023/01/03 07:08:41;;;;;;;20.60;10.60;;;3.00;99.90;;;;;;5069319;28;20055;-69
2023/01/03 07:11:07;;;;;;;22.60;11.38;;;3.10;99.90;;;;;;5070702;28;20047;-69
2023/01/03 07:16:18;;;;;;;26.30;9.45;;;3.10;99.90;;;;;;5070902;28;20080;-69
2023/01/03 07:18:45;;;;;;;28.33;11.10;;;3.00;99.90;;;;;;5070743;28;20047;-69
2023/01/03 07:21:11;;;;;;;17.77;10.55;;;3.10;99.90;;;;;;5052494;28;20093;-69
2023/01/03 07:23:37;;;;;;;18.60;10.55;;;3.10;99.90;;;;;;5067102;28;20489;-69
2023/01/03 07:26:03;;;;;;;18.80;10.63;;;3.30;99.90;;;;;;5052339;28;20131;-69
2023/01/03 07:28:29;;;;;;;27.23;11.40;;;3.40;99.90;;;;;;5060012;28;20040;-69
2023/01/03 07:31:00;;;;;;;22.08;12.40;;;3.40;99.90;;;;;;5056270;28;20033;-69
2023/01/03 07:33:25;;;;;;;19.08;10.52;;;3.50;99.90;;;;;;5034620;28;20051;-69
2023/01/03 07:35:51;;;;;;;23.58;12.70;;;3.60;99.90;;;;;;5029748;28;20120;-69
2023/01/03 07:38:17;;;;;;;25.08;13.00;;;3.70;99.90;;;;;;5029250;28;20041;-69
2023/01/03 07:40:42;;;;;;;24.55;13.75;;;3.70;99.90;;;;;;5030475;28;20044;-69
2023/01/03 07:45:56;;;;;;;25.77;12.65;;;3.80;99.90;;;;;;5029933;28;20045;-69
2023/01/03 07:48:22;;;;;;;22.90;11.73;;;3.80;99.90;;;;;;5030721;28;20510;-69
2023/01/03 07:50:47;;;;;;;24.00;12.80;;;3.80;99.90;;;;;;5030570;28;20048;-69
2023/01/03 07:53:15;;;;;;;22.98;11.88;;;3.80;99.90;;;;;;5033905;28;20095;-69
2023/01/03 07:55:42;;;;;;;26.05;12.07;;;3.80;99.90;;;;;;5026413;28;20090;-69
2023/01/03 07:58:07;;;;;;;30.98;13.65;;;4.00;99.90;;;;;;5028609;28;20517;-70
2023/01/03 08:00:33;;;;;;;25.52;12.52;;;4.00;99.90;;;;;;5025030;28;20076;-70
2023/01/03 08:02:58;;;;;;;25.05;14.02;;;4.10;99.90;;;;;;5024140;28;20809;-69
2023/01/03 08:05:24;;;;;;;35.67;15.43;;;4.10;99.90;;;;;;5023211;28;20521;-70
2023/01/03 08:07:51;;;;;;;31.02;15.07;;;4.20;99.90;;;;;;5023637;28;20072;-70
2023/01/03 08:13:17;;;;;;;37.83;16.58;;;4.30;99.90;;;;;;5031976;28;20077;-70
2023/01/03 08:15:54;;;;;;;35.75;15.65;;;4.30;99.90;;;;;;5031752;28;20037;-70
2023/01/03 08:18:25;;;;;;;35.63;16.45;;;4.30;99.90;;;;;;5031858;28;20073;-70
2023/01/03 08:20:53;;;;;;;37.35;16.67;;;4.40;99.90;;;;;;5029210;28;20516;-69
2023/01/03 08:23:23;;;;;;;38.60;16.60;;;4.40;99.90;;;;;;5029945;28;20045;-70
2023/01/03 08:25:48;;;;;;;41.35;17.10;;;4.40;99.90;;;;;;5031708;28;20103;-70
2023/01/03 08:28:15;;;;;;;38.33;18.08;;;4.50;99.90;;;;;;5031329;28;20045;-70
2023/01/03 08:30:45;;;;;;;45.05;20.02;;;4.50;99.90;;;;;;5033794;28;20128;-69
2023/01/03 08:33:13;;;;;;;42.67;18.73;;;4.60;99.90;;;;;;5031978;28;20045;-69
2023/01/03 08:35:44;;;;;;;44.38;18.05;;;4.60;99.90;;;;;;5035313;28;20127;-70
2023/01/03 08:38:16;;;;;;;46.28;20.15;;;4.50;99.90;;;;;;5042909;28;20128;-70
2023/01/03 08:40:43;;;;;;;41.17;18.92;;;4.60;99.90;;;;;;5048795;28;20043;-70
2023/01/03 08:43:11;;;;;;;40.03;17.73;;;4.60;99.90;;;;;;5042922;28;20051;-70
2023/01/03 08:45:37;;;;;;;43.47;18.75;;;4.60;99.90;;;;;;5042992;28;20109;-69
2023/01/03 08:48:03;;;;;;;45.55;18.63;;;4.70;99.90;;;;;;5041779;28;20037;-70
2023/01/03 08:50:30;;;;;;;44.28;18.45;;;4.70;99.90;;;;;;5043286;28;20052;-69
2023/01/03 08:52:56;;;;;;;52.95;18.70;;;4.70;99.90;;;;;;5033324;28;20389;-71
2023/01/03 08:55:22;;;;;;;38.15;16.88;;;4.80;99.90;;;;;;5047513;28;20084;-69
2023/01/03 08:57:47;;;;;;;42.28;18.38;;;4.80;99.90;;;;;;5033192;28;20049;-68
2023/01/03 09:00:13;;;;;;;45.58;18.42;;;4.80;99.90;;;;;;5031476;28;20051;-70
2023/01/03 09:02:39;;;;;;;46.22;18.98;;;4.90;99.90;;;;;;5031746;28;20398;-69
2023/01/03 09:05:05;;;;;;;44.38;18.27;;;4.80;99.90;;;;;;5031800;28;20034;-70
2023/01/03 09:07:31;;;;;;;41.72;18.27;;;4.90;99.90;;;;;;5031705;28;20049;-74
2023/01/03 09:09:57;;;;;;;46.22;19.27;;;4.90;99.90;;;;;;5031477;28;20052;-73
2023/01/03 09:12:22;;;;;;;48.08;20.65;;;5.00;99.90;;;;;;5032751;28;20085;-73
2023/01/03 09:14:48;;;;;;;44.35;19.38;;;5.00;99.90;;;;;;5032192;28;20429;-73
2023/01/03 09:17:13;;;;;;;48.40;19.48;;;5.10;99.90;;;;;;5032884;28;20124;-73
2023/01/03 09:19:39;;;;;;;51.47;21.23;;;5.10;99.90;;;;;;5032607;28;20034;-73
2023/01/03 09:22:04;;;;;;;45.58;19.50;;;5.10;99.90;;;;;;5032648;28;20038;-73
2023/01/03 09:24:30;;;;;;;47.30;19.85;;;5.00;99.90;;;;;;5030546;28;20064;-73
2023/01/03 09:26:55;;;;;;;50.05;20.48;;;5.10;99.90;;;;;;5032424;28;20068;-73
2023/01/03 09:29:21;;;;;;;51.95;21.70;;;5.10;99.90;;;;;;5064190;28;20442;-74
2023/01/03 09:31:47;;;;;;;52.53;21.15;;;5.20;99.90;;;;;;5032279;28;20037;-73
2023/01/03 09:34:12;;;;;;;53.28;21.73;;;5.20;99.90;;;;;;5031595;28;20103;-70
2023/01/03 09:36:39;;;;;;;48.83;21.23;;;5.20;99.90;;;;;;5032525;28;20426;-69
2023/01/03 09:39:05;;;;;;;49.63;21.20;;;5.10;99.90;;;;;;5032685;28;20068;-70
2023/01/03 09:41:31;;;;;;;46.35;19.38;;;5.20;99.90;;;;;;5044770;28;20732;-69
2023/01/03 09:44:06;;;;;;;62.05;22.83;;;5.10;99.90;;;;;;5041091;28;20029;-70
2023/01/03 09:46:34;;;;;;;61.22;22.77;;;5.20;99.90;;;;;;5050405;28;20095;-70
2023/01/03 09:49:01;;;;;;;50.78;21.88;;;5.20;99.90;;;;;;5043447;28;20055;-70
2023/01/03 10:03:42;;;;;;;63.03;23.15;;;5.30;99.90;;;;;;5032090;28;20049;-70
2023/01/03 10:06:39;;;;;;;56.30;23.15;;;5.30;99.90;;;;;;5036012;28;20069;-70
2023/01/03 10:09:31;;;;;;;55.47;23.48;;;5.30;99.90;;;;;;5032269;28;20046;-70
2023/01/03 10:12:05;;;;;;;53.13;22.95;;;5.30;99.90;;;;;;5031580;28;20494;-70
2023/01/03 10:14:51;;;;;;;55.88;21.67;;;5.30;99.90;;;;;;5028645;28;20195;-70
2023/01/03 10:17:26;;;;;;;54.40;20.38;;;5.30;99.90;;;;;;5031449;28;20514;-70
2023/01/03 10:20:14;;;;;;;56.83;22.88;;;5.40;99.90;;;;;;5032071;28;20552;-70
2023/01/03 10:22:40;;;;;;;56.10;22.20;;;5.40;99.90;;;;;;5050061;28;20041;-70
2023/01/03 10:25:16;;;;;;;58.75;24.00;;;5.40;99.90;;;;;;5051016;28;20375;-70
2023/01/03 10:27:56;;;;;;;46.40;21.95;;;5.40;99.90;;;;;;5050319;28;20053;-70
2023/01/03 10:30:42;;;;;;;50.63;21.05;;;5.50;99.90;;;;;;5051731;28;20037;-69
2023/01/03 10:33:47;;;;;;;55.42;23.65;;;5.40;99.90;;;;;;5033309;28;20055;-70
2023/01/03 10:36:15;;;;;;;48.72;21.00;;;5.50;99.90;;;;;;5039674;28;20057;-70
2023/01/03 10:38:42;;;;;;;55.60;24.38;;;5.50;99.90;;;;;;5051136;28;20033;-70
2023/01/03 10:41:16;;;;;;;56.00;22.73;;;5.50;99.90;;;;;;5050122;28;20099;-69
2023/01/03 10:43:44;;;;;;;50.17;22.48;;;5.60;99.90;;;;;;5032606;28;20044;-71
2023/01/03 10:46:20;;;;;;;53.58;21.17;;;5.60;99.90;;;;;;5046462;28;20501;-70
2023/01/03 10:48:55;;;;;;;48.70;19.83;;;5.70;99.90;;;;;;5051381;28;20037;-69
2023/01/03 10:51:38;;;;;;;48.20;21.05;;;5.70;99.90;;;;;;5050822;28;20049;-70
2023/01/03 10:54:34;;;;;;;49.63;21.48;;;5.70;99.90;;;;;;5051691;28;20529;-69
2023/01/03 10:57:00;;;;;;;50.88;20.02;;;5.70;99.90;;;;;;5061268;28;20044;-69
2023/01/03 10:59:28;;;;;;;44.42;19.42;;;5.70;99.90;;;;;;5058510;28;20041;-70
2023/01/03 11:02:01;;;;;;;47.55;21.40;;;5.80;99.90;;;;;;5057945;28;20040;-70
2023/01/03 11:04:31;;;;;;;43.55;19.02;;;5.80;99.90;;;;;;5058008;28;20398;-70
2023/01/03 11:07:11;;;;;;;42.67;20.35;;;5.80;99.90;;;;;;5057093;28;20059;-72
2023/01/03 11:09:48;;;;;;;44.97;19.88;;;5.90;99.90;;;;;;5057016;28;20033;-70
2023/01/03 11:12:32;;;;;;;38.75;19.67;;;5.90;99.90;;;;;;5059271;28;20120;-71
2023/01/03 11:14:59;;;;;;;40.88;19.02;;;5.90;99.90;;;;;;5056802;28;20036;-70
2023/01/03 11:17:27;;;;;;;39.47;19.08;;;5.90;99.90;;;;;;5059993;28;20044;-71
2023/01/03 11:19:54;;;;;;;40.80;19.63;;;5.90;99.90;;;;;;5061382;28;20043;-70
2023/01/03 11:22:32;;;;;;;41.30;18.55;;;6.00;99.90;;;;;;5059854;28;20116;-71
2023/01/03 11:25:17;;;;;;;45.58;18.77;;;6.10;99.90;;;;;;5055196;28;20120;-70
2023/01/03 11:28:14;;;;;;;38.47;19.00;;;6.10;99.90;;;;;;5061338;28;20043;-71
2023/01/03 11:30:42;;;;;;;32.50;16.80;;;6.10;99.90;;;;;;5060370;28;20036;-72
2023/01/03 11:33:53;;;;;;;30.05;16.27;;;6.10;99.90;;;;;;5062324;28;20082;-72
2023/01/03 11:36:39;;;;;;;33.20;16.90;;;6.20;99.90;;;;;;5059785;28;20148;-71
2023/01/03 11:39:15;;;;;;;34.47;15.05;;;6.20;99.90;;;;;;5053788;28;20667;-70
2023/01/03 11:42:07;;;;;;;30.88;15.52;;;6.30;99.90;;;;;;5053497;28;20371;-70
2023/01/03 11:44:51;;;;;;;31.37;14.30;;;6.30;99.90;;;;;;5052710;28;20401;-69
2023/01/03 11:47:43;;;;;;;31.80;15.07;;;6.30;99.90;;;;;;5061881;28;20286;-70
2023/01/03 11:50:45;;;;;;;27.02;13.90;;;6.40;99.90;;;;;;5054622;28;20056;-69
2023/01/03 11:53:35;;;;;;;26.17;14.25;;;6.40;99.90;;;;;;5054197;28;20049;-70
2023/01/03 11:56:13;;;;;;;28.33;13.27;;;6.40;99.90;;;;;;5049393;28;20034;-69
2023/01/03 11:58:53;;;;;;;23.95;13.60;;;6.50;99.90;;;;;;5067278;28;20047;-70
2023/01/03 12:01:32;;;;;;;22.40;12.07;;;6.50;99.90;;;;;;5068139;28;20043;-70
2023/01/03 12:04:19;;;;;;;24.15;13.15;;;6.50;99.90;;;;;;5059303;28;20051;-70
2023/01/03 12:06:56;;;;;;;23.38;12.77;;;6.50;99.90;;;;;;5068139;28;20044;-70
2023/01/03 12:09:50;;;;;;;23.75;12.60;;;6.50;99.90;;;;;;5070271;28;20043;-70
2023/01/03 12:12:31;;;;;;;26.55;14.18;;;6.50;99.90;;;;;;5072760;28;20097;-71
2023/01/03 12:15:23;;;;;;;27.25;12.93;;;6.50;99.90;;;;;;5073359;28;20033;-70
2023/01/03 12:17:58;;;;;;;25.85;12.18;;;6.50;99.90;;;;;;5074047;28;20045;-70
2023/01/03 12:20:30;;;;;;;28.88;13.95;;;6.60;99.90;;;;;;5073771;28;20044;-70
2023/01/03 12:23:38;;;;;;;23.80;11.70;;;6.60;99.90;;;;;;5073834;28;20044;-70
2023/01/03 12:26:08;;;;;;;25.63;12.50;;;6.60;99.90;;;;;;5058668;28;20056;-70
2023/01/03 12:28:39;;;;;;;22.95;11.98;;;6.70;99.90;;;;;;5073946;28;20048;-71
2023/01/03 12:31:22;;;;;;;22.73;11.50;;;6.70;99.90;;;;;;5073767;28;20040;-71
2023/01/03 12:34:26;;;;;;;22.10;11.65;;;6.70;99.90;;;;;;5073023;28;20040;-70
2023/01/03 12:37:04;;;;;;;24.38;12.02;;;6.70;99.90;;;;;;5073406;28;20047;-70
2023/01/03 12:39:58;;;;;;;24.10;10.43;;;6.70;99.90;;;;;;5072438;28;20045;-70
2023/01/03 12:42:48;;;;;;;20.00;10.73;;;6.70;99.90;;;;;;5071975;28;20044;-70
2023/01/03 12:45:20;;;;;;;20.92;12.20;;;6.80;99.90;;;;;;5072726;28;20041;-71
2023/01/03 12:48:12;;;;;;;23.40;10.88;;;6.80;99.90;;;;;;5073130;28;20521;-70
2023/01/03 12:50:48;;;;;;;26.83;12.52;;;6.80;99.90;;;;;;5060068;28;20109;-70
2023/01/03 12:53:38;;;;;;;23.20;10.52;;;6.80;99.90;;;;;;5062423;28;20040;-75
2023/01/03 12:56:27;;;;;;;20.20;11.25;;;6.80;99.90;;;;;;5053371;28;20429;-73
2023/01/03 12:59:30;;;;;;;24.00;12.48;;;6.90;99.90;;;;;;5033249;28;20037;-70
2023/01/03 13:02:12;;;;;;;23.20;11.38;;;6.90;99.90;;;;;;5032155;28;20037;-70
2023/01/03 13:04:41;;;;;;;21.55;11.85;;;6.90;99.90;;;;;;5031057;28;20045;-70
2023/01/03 13:07:23;;;;;;;25.88;11.15;;;6.90;99.90;;;;;;5031743;28;20116;-70
2023/01/03 13:10:00;;;;;;;23.33;11.00;;;6.90;99.90;;;;;;5031743;28;20073;-70
2023/01/03 13:12:29;;;;;;;23.27;11.38;;;6.90;99.90;;;;;;5032934;28;20045;-70
2023/01/03 13:14:56;;;;;;;24.75;11.90;;;6.90;99.90;;;;;;5032108;28;20041;-70
2023/01/03 13:17:28;;;;;;;24.45;11.77;;;7.00;99.90;;;;;;5031646;28;20180;-70
2023/01/03 13:19:57;;;;;;;20.43;11.30;;;7.00;99.90;;;;;;5033312;28;20121;-70
2023/01/03 13:22:51;;;;;;;20.30;10.73;;;7.00;99.90;;;;;;5031654;28;20045;-70
2023/01/03 13:25:25;;;;;;;25.20;11.80;;;7.00;99.90;;;;;;5031912;28;20049;-70
2023/01/03 13:27:52;;;;;;;22.05;10.85;;;7.00;99.90;;;;;;5033066;28;20045;-70
2023/01/03 13:30:22;;;;;;;25.27;12.40;;;7.00;99.90;;;;;;5032741;28;20049;-70
2023/01/03 13:33:09;;;;;;;28.70;11.80;;;7.00;99.90;;;;;;5032657;28;20129;-70
2023/01/03 13:35:57;;;;;;;21.45;11.02;;;7.00;99.90;;;;;;5031542;28;20498;-69
2023/01/03 13:38:34;;;;;;;25.90;11.48;;;7.00;99.90;;;;;;5032398;28;20065;-70
2023/01/03 13:41:08;;;;;;;20.83;10.25;;;7.10;99.90;;;;;;5032510;28;20061;-69
2023/01/03 13:43:35;;;;;;;20.88;10.48;;;7.10;99.90;;;;;;5032685;28;20038;-69
2023/01/03 13:46:20;;;;;;;20.67;10.45;;;7.10;99.90;;;;;;5030603;28;20120;-70
2023/01/03 13:49:04;;;;;;;28.33;11.27;;;7.10;99.90;;;;;;5032696;28;20045;-70
2023/01/03 13:51:44;;;;;;;21.40;10.85;;;7.10;99.90;;;;;;5031189;28;20041;-70
2023/01/03 13:54:09;;;;;;;19.83;10.50;;;7.20;99.90;;;;;;5031559;28;20045;-70
2023/01/03 13:56:44;;;;;;;21.23;10.48;;;7.20;99.90;;;;;;5032305;28;20513;-70
2023/01/03 13:59:21;;;;;;;28.05;13.98;;;7.10;99.90;;;;;;5031025;28;20402;-70
2023/01/03 14:02:15;;;;;;;21.45;10.68;;;7.20;99.90;;;;;;5032356;28;20121;-70
2023/01/03 14:05:17;;;;;;;21.75;10.43;;;7.20;99.90;;;;;;5031381;28;20525;-70
2023/01/03 14:07:48;;;;;;;27.13;12.02;;;7.20;99.90;;;;;;5032045;28;20038;-70